Terminal Aerodrome Forecast
Issued by NWS Cleveland, OH

Home | Current Version | Previous Version | Graphics & Text | Print | Product List | Glossary On
Versions: 1 2 3 4 5 6 7 8 9 10 11 12
000
FTUS41 KCLE 030520
TAFYNG
TAF
KYNG 030520Z 0306/0406 05005KT P6SM SCT250
      TEMPO 0309/0313 4SM BR
     FM031300 08006KT P6SM BKN250
     FM031800 11006KT P6SM BKN045 BKN120
     FM032200 10006KT P6SM VCSH OVC045
     FM040100 04005KT 6SM -SHRA BR OVC030=

USA.gov is the U.S. government's official web portal to all federal, state and local government web resources and services.